Friday, December 14, 2018, 7:24 PM EST
Back to Local

KDYL, Doylestown Airport

Location: Doylestown, PA, United States Lat: 40.333
Local Time: 7:24 PM EST ( 0:24 GMT) Lon: -75.117
Time Zone: US/Eastern Elev: 393 ft

Show me the last for .
Show Decoded

2018-12-14 18:54 METAR KDYL 142354Z AUTO 00000KT 10SM FEW055 OVC085 08/07 A3032 RMK AO2 RAE2256
                 SLP271 P0000 60000 T00780067 10094 20078 58003 =
2018-12-14 18:19 METAR KDYL 142319Z AUTO 00000KT 10SM SCT012 OVC090 08/07 A3032 RMK AO2 RAE2256
                 P0000 T00830072 =
2018-12-14 17:54 METAR KDYL 142254Z AUTO 00000KT 10SM -RA OVC012 08/07 A3033 RMK AO2 RAB16 SLP274
                 P0000 T00830072 =
2018-12-14 16:54 METAR KDYL 142154Z AUTO 00000KT 10SM OVC014 09/07 A3032 RMK AO2 RAB00E10 SLP273
                 P0000 T00890067 =
2018-12-14 15:54 METAR KDYL 142054Z AUTO 00000KT 10SM OVC013 09/07 A3033 RMK AO2 SLP274 T00940067
                 55001 =
2018-12-14 14:54 METAR KDYL 141954Z AUTO 15003KT 10SM BKN012 OVC065 09/07 A3032 RMK AO2 SLP273
                 T00940067 =
2018-12-14 13:54 METAR KDYL 141854Z AUTO VRB03KT 10SM FEW011 OVC065 09/07 A3033 RMK AO2 SLP275
                 T00940067 =
2018-12-14 13:50 METAR KDYL 141850Z AUTO 14004KT 10SM SCT011 OVC065 09/07 A3033 RMK AO2 =
2018-12-14 13:11 METAR KDYL 141811Z AUTO 15005KT 10SM OVC010 09/07 A3036 RMK AO2 T00940067 =
2018-12-14 12:54 METAR KDYL 141754Z AUTO 15007KT 10SM OVC009 09/07 A3035 RMK AO2 SLP283 T00940067
                 10094 20033 56030 =
2018-12-14 11:54 METAR KDYL 141654Z AUTO 00000KT 10SM OVC009 08/06 A3036 RMK AO2 SLP287 T00830056
                 =
2018-12-14 11:44 METAR KDYL 141644Z AUTO 00000KT 10SM OVC009 08/06 A3037 RMK AO2 T00830056 =
2018-12-14 11:17 METAR KDYL 141617Z AUTO VRB03KT 10SM BKN011 BKN017 OVC025 08/06 A3038 RMK AO2
                 CIG 008V015 PRESFR T00830056 =
2018-12-14 10:54 METAR KDYL 141554Z AUTO VRB03KT 10SM FEW009 BKN027 OVC032 08/05 A3041 RMK AO2
                 SLP302 T00780050 =
2018-12-14 10:47 METAR KDYL 141547Z AUTO VRB03KT 10SM FEW009 OVC030 08/05 A3042 RMK AO2 T00830050
                 =
2018-12-14 10:37 METAR KDYL 141537Z AUTO 00000KT 10SM SCT009 BKN015 OVC028 08/05 A3042 RMK AO2
                 T00780050 =
2018-12-14 10:29 METAR KDYL 141529Z AUTO 00000KT 10SM BKN010 BKN017 OVC029 08/05 A3043 RMK AO2
                 CIG 007V013 T00780050 =
2018-12-14 10:14 METAR KDYL 141514Z AUTO 00000KT 10SM SCT010 BKN015 OVC029 07/05 A3043 RMK AO2
                 T00720050 =
2018-12-14 09:54 METAR KDYL 141454Z AUTO 00000KT 10SM BKN012 BKN017 OVC024 07/04 A3044 RMK AO2
                 SLP314 T00670044 50003 =
2018-12-14 08:54 METAR KDYL 141354Z AUTO 00000KT 10SM FEW005 BKN011 OVC028 05/03 A3045 RMK AO2
                 SLP320 T00500028 =
2018-12-14 08:31 METAR KDYL 141331Z AUTO 00000KT 10SM FEW005 SCT010 OVC027 04/02 A3044 RMK AO2
                 T00440022 =
2018-12-14 08:22 METAR KDYL 141322Z AUTO VRB03KT 9SM SCT005 BKN010 OVC029 04/02 A3045 RMK AO2
                 T00390022 =
2018-12-14 07:54 METAR KDYL 141254Z AUTO 00000KT 8SM OVC005 04/02 A3044 RMK AO2 SLP316 T00390022
                 =
2018-12-14 07:29 METAR KDYL 141229Z AUTO 00000KT 9SM BKN006 OVC029 03/02 A3044 RMK AO2 CIG
                 005V012 T00330022 =
2018-12-14 07:19 METAR KDYL 141219Z AUTO 03003KT 9SM SCT008 OVC030 03/02 A3044 RMK AO2 T00330017
                 =
2018-12-14 06:54 METAR KDYL 141154Z AUTO 03003KT 8SM OVC006 03/02 A3043 RMK AO2 SLP312 T00330017
                 10033 20022 53004 =
2018-12-14 05:54 METAR KDYL 141054Z AUTO 00000KT 7SM OVC005 03/02 A3042 RMK AO2 SLP308 T00330017
                 =
2018-12-14 05:25 METAR KDYL 141025Z AUTO 04003KT 6SM BR OVC005 03/02 A3042 RMK AO2 T00280017 =
2018-12-14 05:09 METAR KDYL 141009Z AUTO 04005KT 6SM BR OVC004 03/02 A3041 RMK AO2 T00280017 =
2018-12-14 04:54 METAR KDYL 140954Z AUTO 05004KT 6SM BR OVC005 03/02 A3041 RMK AO2 SLP305
                 T00280017 =
2018-12-14 04:47 METAR KDYL 140947Z AUTO 04003KT 6SM BR OVC005 03/02 A3041 RMK AO2 T00280017 =
2018-12-14 03:54 METAR KDYL 140854Z AUTO 04004KT 6SM BR OVC004 03/02 A3042 RMK AO2 SLP307
                 T00280017 58003 =
2018-12-14 02:54 METAR KDYL 140754Z AUTO 05004KT 7SM OVC004 03/02 A3043 RMK AO2 SLP310 T00280017
                 =
2018-12-14 01:54 METAR KDYL 140654Z AUTO 04003KT 7SM BKN006 BKN010 OVC014 02/01 A3043 RMK AO2
                 SLP312 T00220011 =
2018-12-14 01:19 METAR KDYL 140619Z AUTO 03003KT 7SM BKN006 BKN011 OVC017 02/01 A3044 RMK AO2 CIG
                 005V009 T00220011 =
2018-12-14 00:54 METAR KDYL 140554Z AUTO 05004KT 6SM BR FEW005 BKN013 OVC029 02/01 A3043 RMK AO2
                 SLP310 T00220006 10022 20000 58003 =
2018-12-14 00:34 METAR KDYL 140534Z AUTO 04004KT 6SM BR SCT008 BKN017 OVC029 02/01 A3043 RMK AO2
                 T00220006 =
2018-12-14 00:23 METAR KDYL 140523Z AUTO 04004KT 6SM BR SCT012 BKN024 OVC028 02/01 A3043 RMK AO2
                 T00220006 =
2018-12-14 00:05 METAR KDYL 140505Z AUTO 05004KT 6SM BR SCT004 BKN013 OVC028 02/01 A3044 RMK AO2
                 T00220006 =
2018-12-13 23:54 METAR KDYL 140454Z AUTO 04005KT 6SM BR BKN004 BKN013 OVC028 02/01 A3044 RMK AO2
                 SLP315 T00220006 400561006 =
2018-12-13 22:54 METAR KDYL 140354Z AUTO 04005KT 7SM OVC004 02/01 A3044 RMK AO2 SLP315 T00170006
                 =
2018-12-13 21:54 METAR KDYL 140254Z AUTO 04006KT 8SM OVC003 01/00 A3044 RMK AO2 SLP314 T00110000
                 51008 =
2018-12-13 21:26 METAR KDYL 140226Z AUTO 04005KT 9SM BKN004 BKN025 01/M01 A3043 RMK AO2 T00061011
                 =
2018-12-13 21:17 METAR KDYL 140217Z AUTO 04005KT 9SM BKN005 BKN025 00/M02 A3043 RMK AO2 T00001017
                 =
2018-12-13 21:13 METAR KDYL 140213Z AUTO 04004KT 10SM SCT005 SCT026 00/M02 A3044 RMK AO2
                 T00001017 =
2018-12-13 20:54 METAR KDYL 140154Z AUTO 04005KT 10SM FEW055 00/M02 A3043 RMK AO2 SLP314
                 T00001017 =
2018-12-13 19:54 METAR KDYL 140054Z AUTO 04006KT 10SM CLR 01/M02 A3043 RMK AO2 SLP312 T00061017 =

Support USWX by starting your Amazon purchase here.